Terminal Aerodrome Forecast
Issued by NWS

Home | Current Version | Previous Version | Text Only | Print | Product List | Glossary On
Versions: 1 2 3 4 5 6 7 8 9 10 11 12 13
130
FTUS46 KMFR 261744
TAFLMT
TAF
KLMT 261744Z 2618/2718 VRB03KT P6SM SKC
     FM262000 22011G20KT P6SM SCT100
     FM262300 27014G21KT P6SM VCTS SCT060CB BKN100
     FM270300 28005KT P6SM FEW100
     FM271000 VRB02KT P6SM FEW100=

USA.gov is the U.S. government's official web portal to all federal, state and local government web resources and services.